PWSweather.com
Personal Weather Stations
Station Observations
PIOMBINO2
PiombinoIT

PiombinoIT

Lat: 42.9358, Lon: 10.5231

Elevation: 124

Station Type: Davis Vantage Pro 2

http://piombinometeo.it

Latest ConditionsUpdated 7:30:02 AM GMT+01:01 Friday, May 24, 2019
Currently Today's Max Today's Min Today's Average
Temperature 62.8°F17.1°C 62.8°F17.1°C 56.8°F13.8°C 58.6°F14.8°C
Dew Point 56.5°F13.6°C 56.5°F13.6°C 53.3°F11.8°C 54.4°F12.4°C
Winds 2.0 mph NE3.2 kmh NE 3.0 mph -4.8 kmh - - 1.4 mph 2.3 kmh
Wind Gusts 5.0 mph8.0 kmh 5.0 mph8.0 kmh - -
Humidity 80% 88% 80% 86%
Pressure 29.96 in1014.6 mb 29.98 in1015.2 mb 29.95 in1014.2 mb -
Hour Temp Dew Point Humidity Winds Wind Gusts Pressure Precip Precip Rate Daily Precip Total
07:30 AM 62.8°F17.1°C 56.5°F13.6°C 80% 2.0 mph NE3.2 kmh NE 5.0 mph8.0 kmh 29.96 in1014.6 mb 0.00 in0.0 mm 0.00 in0.0 mm 0.00 in0.0 mm
07:15 AM 61.2°F16.2°C 55.6°F13.1°C 82% 1.0 mph E1.6 kmh E 4.0 mph6.4 kmh 29.96 in1014.6 mb 0.00 in0.0 mm 0.00 in0.0 mm 0.00 in0.0 mm
07:00 AM 59.7°F15.4°C 55.2°F12.9°C 85% 2.0 mph NE3.2 kmh NE 4.0 mph6.4 kmh 29.96 in1014.6 mb 0.00 in0.0 mm 0.00 in0.0 mm 0.00 in0.0 mm
06:45 AM 58.6°F14.8°C 54.5°F12.5°C 86% 2.0 mph NE3.2 kmh NE 4.0 mph6.4 kmh 29.95 in1014.2 mb 0.00 in0.0 mm 0.00 in0.0 mm 0.00 in0.0 mm
06:30 AM 57.7°F14.3°C 53.9°F12.2°C 87% 1.0 mph NE1.6 kmh NE 4.0 mph6.4 kmh 29.96 in1014.6 mb 0.00 in0.0 mm 0.00 in0.0 mm 0.00 in0.0 mm
06:15 AM 57.4°F14.1°C 53.5°F11.9°C 87% Calm Calm -- 29.96 in1014.6 mb 0.00 in0.0 mm 0.00 in0.0 mm 0.00 in0.0 mm
06:00 AM 57.0°F13.9°C 53.5°F11.9°C 88% Calm Calm -- 29.96 in1014.6 mb 0.00 in0.0 mm 0.00 in0.0 mm 0.00 in0.0 mm
05:45 AM 56.8°F13.8°C 53.3°F11.8°C 88% Calm Calm -- 29.96 in1014.6 mb 0.00 in0.0 mm 0.00 in0.0 mm 0.00 in0.0 mm
05:30 AM 56.8°F13.8°C 53.3°F11.8°C 88% Calm Calm -- 29.96 in1014.6 mb 0.00 in0.0 mm 0.00 in0.0 mm 0.00 in0.0 mm
05:15 AM 56.8°F13.8°C 53.3°F11.8°C 88% 1.0 mph NNE1.6 kmh NNE 1.0 mph1.6 kmh 29.96 in1014.6 mb 0.00 in0.0 mm 0.00 in0.0 mm 0.00 in0.0 mm
05:00 AM 57.2°F14.0°C 53.4°F11.9°C 87% Calm Calm 2.0 mph3.2 kmh 29.95 in1014.2 mb 0.00 in0.0 mm 0.00 in0.0 mm 0.00 in0.0 mm
04:45 AM 57.7°F14.3°C 53.9°F12.2°C 87% 1.0 mph NNE1.6 kmh NNE 3.0 mph4.8 kmh 29.95 in1014.2 mb 0.00 in0.0 mm 0.00 in0.0 mm 0.00 in0.0 mm
04:30 AM 58.3°F14.6°C 54.4°F12.4°C 87% 2.0 mph N3.2 kmh N 4.0 mph6.4 kmh 29.95 in1014.2 mb 0.00 in0.0 mm 0.00 in0.0 mm 0.00 in0.0 mm
04:15 AM 58.5°F14.7°C 54.6°F12.6°C 87% 2.0 mph NW3.2 kmh NW 3.0 mph4.8 kmh 29.95 in1014.2 mb 0.00 in0.0 mm 0.00 in0.0 mm 0.00 in0.0 mm
04:00 AM 58.3°F14.6°C 54.4°F12.4°C 87% Calm Calm 1.0 mph1.6 kmh 29.95 in1014.2 mb 0.00 in0.0 mm 0.00 in0.0 mm 0.00 in0.0 mm
03:45 AM 58.5°F14.7°C 54.6°F12.6°C 87% 2.0 mph NW3.2 kmh NW 3.0 mph4.8 kmh 29.95 in1014.2 mb 0.00 in0.0 mm 0.00 in0.0 mm 0.00 in0.0 mm
03:30 AM 58.3°F14.6°C 54.4°F12.4°C 87% 3.0 mph NW4.8 kmh NW 5.0 mph8.0 kmh 29.95 in1014.2 mb 0.00 in0.0 mm 0.00 in0.0 mm 0.00 in0.0 mm
03:15 AM 57.9°F14.4°C 53.8°F12.1°C 86% 2.0 mph NW3.2 kmh NW 5.0 mph8.0 kmh 29.95 in1014.2 mb 0.00 in0.0 mm 0.00 in0.0 mm 0.00 in0.0 mm
03:00 AM 57.7°F14.3°C 53.6°F12.0°C 86% Calm Calm -- 29.95 in1014.2 mb 0.00 in0.0 mm 0.00 in0.0 mm 0.00 in0.0 mm
02:45 AM 57.9°F14.4°C 53.8°F12.1°C 86% 1.0 mph NNE1.6 kmh NNE 2.0 mph3.2 kmh 29.95 in1014.2 mb 0.00 in0.0 mm 0.00 in0.0 mm 0.00 in0.0 mm
02:30 AM 57.9°F14.4°C 53.8°F12.1°C 86% 2.0 mph NNE3.2 kmh NNE 3.0 mph4.8 kmh 29.95 in1014.2 mb 0.00 in0.0 mm 0.00 in0.0 mm 0.00 in0.0 mm
02:15 AM 58.3°F14.6°C 53.8°F12.1°C 85% 3.0 mph NE4.8 kmh NE 4.0 mph6.4 kmh 29.95 in1014.2 mb 0.00 in0.0 mm 0.00 in0.0 mm 0.00 in0.0 mm
02:00 AM 58.6°F14.8°C 54.1°F12.3°C 85% 3.0 mph NE4.8 kmh NE 5.0 mph8.0 kmh 29.96 in1014.6 mb 0.00 in0.0 mm 0.00 in0.0 mm 0.00 in0.0 mm
01:45 AM 59.2°F15.1°C 54.7°F12.6°C 85% 2.0 mph NE3.2 kmh NE 4.0 mph6.4 kmh 29.96 in1014.6 mb 0.00 in0.0 mm 0.00 in0.0 mm 0.00 in0.0 mm
01:30 AM 59.5°F15.3°C 55.0°F12.8°C 85% 1.0 mph NNE1.6 kmh NNE 3.0 mph4.8 kmh 29.96 in1014.6 mb 0.00 in0.0 mm 0.00 in0.0 mm 0.00 in0.0 mm
01:15 AM 59.4°F15.2°C 54.8°F12.7°C 85% 1.0 mph NNE1.6 kmh NNE 3.0 mph4.8 kmh 29.97 in1014.9 mb 0.00 in0.0 mm 0.00 in0.0 mm 0.00 in0.0 mm
01:00 AM 59.2°F15.1°C 54.7°F12.6°C 85% 3.0 mph NNE4.8 kmh NNE 4.0 mph6.4 kmh 29.97 in1014.9 mb 0.00 in0.0 mm 0.00 in0.0 mm 0.00 in0.0 mm
12:45 AM 59.4°F15.2°C 54.8°F12.7°C 85% 2.0 mph NNE3.2 kmh NNE 4.0 mph6.4 kmh 29.97 in1014.9 mb 0.00 in0.0 mm 0.00 in0.0 mm 0.00 in0.0 mm
12:30 AM 59.5°F15.3°C 55.0°F12.8°C 85% 2.0 mph N3.2 kmh N 4.0 mph6.4 kmh 29.98 in1015.2 mb 0.00 in0.0 mm 0.00 in0.0 mm 0.00 in0.0 mm
12:15 AM 59.9°F15.5°C 55.4°F13.0°C 85% 1.0 mph NE1.6 kmh NE 5.0 mph8.0 kmh 29.98 in1015.2 mb 0.00 in0.0 mm 0.00 in0.0 mm 0.00 in0.0 mm
12:00 AM 61.0°F16.1°C 56.1°F13.4°C 84% 1.0 mph ENE1.6 kmh ENE 4.0 mph6.4 kmh 29.98 in1015.2 mb 0.00 in0.0 mm 0.00 in0.0 mm 0.00 in0.0 mm